ESGT/THN METAR and TAF weather

Enter ICAO airport designator
Station Type Date Time Source
ESGT METAR 2020/09/22 16:20 UTC NOAA

ESGT 221620Z AUTO 20007KT 9999 OVC027/// 15/11 Q1006


Station Type Date Time Source
ESGT Decoded METAR 2020/09/22 16:20 UTC NOAA

Trollhattan Private , Sweden (ESGT) 58-19N 012-21E
Sep 22, 2020 - 12:20 PM EDT / 2020.09.22 1620 UTC
Wind: from the SSW (200 degrees) at 8 MPH (7 KT):0
Visibility: greater than 7 mile(s):0
Sky conditions: overcast
Temperature: 59 F (15 C)
Dew Point: 51 F (11 C)
Relative Humidity: 76%
Pressure (altimeter): 29.71 in. Hg (1006 hPa)
ob: ESGT 221620Z AUTO 20007KT 9999 OVC027/// 15/11 Q1006
cycle: 16

Station Type Date Time Source
ESGT TAF 2016/08/12 05:58 UTC NOAA

TAF ESGT 120430Z 1205/1224 18007KT 9999 FEW030

Example: see airport list